Colonia do Gurgueia, Brazil
Current Conditions -  °F | °C
As of 4:00 PM on Friday 21 Nov 2014 (Local Time) from SBTE Reporting Station
Scattered Clouds Scattered Clouds  
Wind Chill: 95°   Ceiling: Unl
Heat Index: 96°   Visibility: 6mi
Dew Point: 63°   Wind: 7mph
Humidity: 34%   Direction: 120°ESE
Pressure: 29.74"   Gusts: NA
Location:  8.18°S, 43.79°W
Report Text: SBTE 211900Z 12006KT 9999 SCT025 35/17 Q1007
Loading
Personal Weather Stations






























Interactive Weather Map New forecast layout! Learn more

10-Day Weather Forecast

Advertisements
Track Severe Weather on mobile